Tobaccoville, North Carolina
Current Conditions -  °F | °C
As of 9:54 PM on Tuesday 25 Nov 2014 (Local Time) from KINT Reporting Station
Overcast Overcast  
Wind Chill: 52°   Ceiling: 3600
Heat Index: 52°   Visibility: 10mi
Dew Point: 37°   Wind: 0mph
Humidity: 57%   Direction: NA
Pressure: 30.09"   Gusts: NA
Location:  36.24°N, 80.37°W
Report Text: KINT 260254Z 00000KT 10SM BKN036 BKN050 OVC065 11/03 A3009 RMK AO2 SLP186 T01110028 58000
Loading
Personal Weather Stations






























Interactive Weather Map New forecast layout! Learn more

10-Day Weather Forecast

Advertisements
Track Severe Weather on mobile